TAF LFRN
AMD LFRN 261938Z 2619/2718 28015G25KT 9999 BKN025 TEMPO 2619/2718 29015G30KT 4000 SHRA BKN020CB TEMPO 2619/2718 33025G40KT 2000 SHRAGS BKN015CB PROB30 TEMPO 2622/2707 2000 TSRASN BKN008 BKN015CB BECMG 2706/2708 33020G35KT=
METAR LFRN
LFRN 270730Z AUTO 30011KT 280V340 9999 4700 RA SCT023/// BKN030/// BKN037/// ///TCU 05/03 Q0994 TEMPO 33025G40KT 2000 SHRAGS BKN015CB=
LFRN 270700Z AUTO 31016G29KT 9999 -RA SCT019/// BKN027/// BKN032/// ///TCU 05/03 Q0993 TEMPO 33025G40KT 2000 SHRAGS BKN015CB=
LFRN 270630Z AUTO 29012KT 9999 -RA FEW015/// OVC022/// ///TCU 04/03 Q0993 TEMPO 33025G40KT 2000 SHRAGS BKN015CB=
LFRN 270600Z AUTO 27010KT 9999 -RA BKN020/// OVC028/// ///TCU 04/03 Q0993 TEMPO 33025G40KT 2000 SHRASN BKN008 BKN015CB=
LFRN 270500Z AUTO 27015KT 9999 -RA FEW026/// BKN037/// BKN058/// ///TCU 04/02 Q0993 TEMPO 33025G40KT 2000 TSRASN BKN008 BKN015CB=
WC LFRN
WS LFRN
WV LFRN